Terminal Aerodrome Forecast
Issued by NWS

Home | Current Version | Previous Version | Text Only | Print | Product List | Glossary Off
Versions: 1 2 3 4 5 6 7 8 9 10 11 12 13 14 15 16 17 18 19 20 21 22 23 24 25

000
FTUS43 KBIS 241300 AAA
TAFDIK
TAF AMD
KDIK 241328Z 2413/2512 12008KT P6SM -RA OVC050
     FM241500 28018G24KT 5SM -RA BR BKN015 OVC025
     FM242000 29023G30KT P6SM VCSH SCT018 BKN035
     FM250200 30021G29KT P6SM SCT012 BKN025=

USA.gov is the U.S. government's official web portal to all federal, state and local government web resources and services.